Time;durP1;ratioP1;P1;durP2;ratioP2;P2;SDS_P1;SDS_P2;PMS_P1;PMS_P2;Temp;Humidity;BMP_temperature;BMP_pressure;BME280_temperature;BME280_humidity;BME280_pressure;Samples;Min_cycle;Max_cycle;Signal;HPM_P1;HPM_P2
2022/07/11 00:01:18;;;;;;;3.78;1.80;;;;;;;16.38;61.05;96234.00;5113778;28;20044;-63
2022/07/11 00:03:45;;;;;;;2.30;2.10;;;;;;;16.36;61.21;96233.28;5114062;28;20134;-63
2022/07/11 00:06:13;;;;;;;2.88;1.88;;;;;;;16.31;60.05;96235.38;5114080;27;20047;-63
2022/07/11 00:08:40;;;;;;;2.58;1.90;;;;;;;16.32;59.55;96234.44;5114066;28;20093;-63
2022/07/11 00:11:08;;;;;;;2.08;1.88;;;;;;;16.36;59.87;96238.56;5114009;28;20105;-62
2022/07/11 00:13:35;;;;;;;3.10;2.20;;;;;;;16.39;58.86;96230.44;5114019;28;20055;-63
2022/07/11 00:16:02;;;;;;;4.00;2.03;;;;;;;16.44;59.16;96230.16;5114160;28;20130;-63
2022/07/11 00:18:29;;;;;;;2.13;1.85;;;;;;;16.49;58.47;96228.03;5114313;28;20051;-63
2022/07/11 00:20:56;;;;;;;2.45;2.00;;;;;;;16.51;58.71;96241.13;5114107;28;20047;-62
2022/07/11 00:23:23;;;;;;;5.38;2.10;;;;;;;16.51;59.01;96244.63;5113863;28;20122;-62
2022/07/11 00:25:50;;;;;;;3.30;2.05;;;;;;;16.57;57.11;96246.00;5113713;28;20083;-63
2022/07/11 00:28:19;;;;;;;2.53;2.10;;;;;;;16.61;57.66;96238.69;5113756;28;20047;-63
2022/07/11 00:30:46;;;;;;;2.78;2.13;;;;;;;16.66;56.79;96240.13;5113695;28;20508;-62
2022/07/11 00:33:13;;;;;;;2.03;1.77;;;;;;;16.72;57.43;96243.28;5113811;28;20467;-63
2022/07/11 00:35:41;;;;;;;2.60;1.90;;;;;;;16.77;56.26;96249.09;5113696;28;20079;-63
2022/07/11 00:38:08;;;;;;;4.90;1.88;;;;;;;16.85;55.92;96232.72;5113841;28;20109;-63
2022/07/11 00:40:35;;;;;;;5.63;1.77;;;;;;;16.91;55.30;96248.13;5113636;28;20054;-63
2022/07/11 00:43:04;;;;;;;14.07;2.50;;;;;;;16.97;55.54;96244.22;5113834;28;20071;-63
2022/07/11 00:45:33;;;;;;;2.97;2.05;;;;;;;16.99;55.22;96245.84;5113422;28;20062;-63
2022/07/11 00:48:00;;;;;;;2.35;2.15;;;;;;;17.02;55.93;96248.25;5113732;28;20097;-63
2022/07/11 00:50:27;;;;;;;3.22;2.00;;;;;;;17.05;55.31;96245.41;5113984;28;20105;-63
2022/07/11 00:52:56;;;;;;;2.55;1.80;;;;;;;17.03;55.83;96234.09;5113832;28;20077;-62
2022/07/11 00:55:24;;;;;;;2.58;1.73;;;;;;;17.08;54.87;96238.25;5113593;28;20100;-62
2022/07/11 00:57:53;;;;;;;3.10;1.73;;;;;;;17.08;55.07;96240.88;5113549;28;20071;-63
2022/07/11 01:00:20;;;;;;;2.20;1.75;;;;;;;17.13;54.24;96246.72;5113479;28;20086;-63
2022/07/11 01:02:49;;;;;;;5.90;1.63;;;;;;;17.20;53.82;96241.81;5113483;28;20109;-63
2022/07/11 01:05:16;;;;;;;2.40;1.55;;;;;;;17.25;54.14;96245.00;5113441;28;20527;-63
2022/07/11 01:07:43;;;;;;;3.08;1.73;;;;;;;17.21;54.52;96244.38;5113477;28;20044;-63
2022/07/11 01:10:10;;;;;;;3.28;1.50;;;;;;;17.20;53.90;96241.81;5113431;28;20093;-62
2022/07/11 01:12:37;;;;;;;1.98;1.60;;;;;;;17.17;53.89;96249.03;5113590;28;20130;-62
2022/07/11 01:15:07;;;;;;;2.95;2.00;;;;;;;17.22;54.44;96250.50;5117767;28;20087;-62
2022/07/11 01:17:34;;;;;;;2.30;1.90;;;;;;;17.25;53.66;96252.94;5117537;28;20051;-63
2022/07/11 01:20:03;;;;;;;5.15;2.17;;;;;;;17.28;53.33;96250.09;5117488;28;20052;-63
2022/07/11 01:22:37;;;;;;;2.92;1.65;;;;;;;17.32;53.21;96254.19;5117594;28;20047;-63
2022/07/11 01:25:06;;;;;;;2.45;1.83;;;;;;;17.31;53.78;96247.22;5117249;28;20047;-63
2022/07/11 01:27:34;;;;;;;1.88;1.60;;;;;;;17.28;53.44;96250.09;5117348;28;20130;-63
2022/07/11 01:30:01;;;;;;;2.90;1.83;;;;;;;17.24;53.70;96254.72;5117261;28;20043;-63
2022/07/11 01:32:28;;;;;;;3.83;1.52;;;;;;;17.24;53.41;96257.38;5117192;28;20130;-62
2022/07/11 01:34:55;;;;;;;2.25;1.60;;;;;;;17.23;54.00;96263.63;5117206;28;20109;-63
2022/07/11 01:37:22;;;;;;;11.13;1.92;;;;;;;17.18;54.21;96249.88;5117086;28;20052;-62
2022/07/11 01:39:49;;;;;;;3.47;1.80;;;;;;;17.17;53.83;96245.53;5117012;28;20082;-62
2022/07/11 01:42:17;;;;;;;5.35;1.73;;;;;;;17.18;53.40;96247.22;5116881;28;20086;-63
2022/07/11 01:44:45;;;;;;;1.60;1.50;;;;;;;17.15;53.90;96243.00;5116748;28;20051;-63
2022/07/11 01:47:12;;;;;;;2.70;1.92;;;;;;;17.13;54.06;96247.53;5116646;28;20051;-63
2022/07/11 01:49:39;;;;;;;3.55;1.88;;;;;;;17.16;54.08;96251.78;5116912;28;20056;-63
2022/07/11 01:52:07;;;;;;;4.07;1.70;;;;;;;17.08;53.88;96254.94;5116912;28;20101;-63
2022/07/11 01:54:34;;;;;;;2.88;1.52;;;;;;;17.02;53.32;96250.06;5116752;28;20039;-62
2022/07/11 01:57:01;;;;;;;3.30;1.63;;;;;;;17.04;53.89;96254.28;5116644;28;20047;-63
2022/07/11 01:59:29;;;;;;;2.85;1.73;;;;;;;16.97;54.46;96255.66;5116516;28;20051;-63
2022/07/11 02:01:58;;;;;;;1.88;1.60;;;;;;;16.93;53.91;96252.38;5116587;28;20118;-63
2022/07/11 02:04:25;;;;;;;2.25;1.80;;;;;;;16.95;53.28;96257.56;5116317;28;20043;-63
2022/07/11 02:06:52;;;;;;;2.70;1.70;;;;;;;16.94;53.77;96253.22;5116490;28;20047;-63
2022/07/11 02:09:20;;;;;;;3.25;2.10;;;;;;;16.97;53.48;96260.06;5116449;28;20133;-62
2022/07/11 02:11:47;;;;;;;1.88;1.42;;;;;;;16.97;53.46;96253.00;5116300;28;20047;-63
2022/07/11 02:14:14;;;;;;;3.97;1.52;;;;;;;16.97;53.17;96258.28;5116316;28;20489;-63
2022/07/11 02:16:42;;;;;;;8.45;1.70;;;;;;;16.99;53.51;96261.69;5116620;28;20039;-62
2022/07/11 02:19:10;;;;;;;4.43;1.65;;;;;;;16.93;53.75;96257.66;5116299;28;20386;-63
2022/07/11 02:21:38;;;;;;;2.13;1.70;;;;;;;16.89;53.84;96257.97;5116244;28;20052;-63
2022/07/11 02:24:05;;;;;;;2.30;1.90;;;;;;;16.73;55.27;96253.72;5116055;28;20054;-62
2022/07/11 02:26:32;;;;;;;5.88;1.60;;;;;;;16.64;55.24;96263.13;5115849;28;20484;-63
2022/07/11 02:29:00;;;;;;;2.08;1.65;;;;;;;16.63;55.57;96260.56;5116176;28;20097;-62
2022/07/11 02:31:27;;;;;;;4.70;1.80;;;;;;;16.57;55.38;96259.19;5115978;28;20476;-63
2022/07/11 02:33:55;;;;;;;2.47;2.20;;;;;;;16.52;56.25;96263.94;5115940;28;20048;-62
2022/07/11 02:36:22;;;;;;;11.23;1.90;;;;;;;16.41;56.53;96267.31;5115973;28;20463;-62
2022/07/11 02:38:49;;;;;;;2.38;1.73;;;;;;;16.36;56.35;96261.47;5115898;28;20446;-62
2022/07/11 02:41:16;;;;;;;4.22;1.52;;;;;;;16.32;55.60;96263.47;5115842;28;20105;-62
2022/07/11 02:43:43;;;;;;;1.85;1.42;;;;;;;16.31;56.07;96266.22;5115768;28;20071;-62
2022/07/11 02:46:10;;;;;;;3.75;1.75;;;;;;;16.29;55.75;96269.78;5115617;28;20059;-63
2022/07/11 02:48:37;;;;;;;2.55;1.75;;;;;;;16.33;56.12;96274.88;5116116;28;20079;-63
2022/07/11 02:51:06;;;;;;;1.60;1.50;;;;;;;16.29;55.89;96275.06;5115539;28;20065;-62
2022/07/11 02:53:33;;;;;;;2.45;1.70;;;;;;;16.22;56.45;96273.78;5115592;28;20050;-62
2022/07/11 02:56:00;;;;;;;3.72;1.63;;;;;;;16.20;55.68;96272.19;5115519;28;20055;-63
2022/07/11 02:58:27;;;;;;;1.83;1.45;;;;;;;16.19;55.26;96287.16;5115435;28;20431;-63
2022/07/11 03:00:54;;;;;;;3.85;1.50;;;;;;;16.22;57.14;96284.31;5115449;28;20043;-63
2022/07/11 03:03:22;;;;;;;4.55;1.50;;;;;;;16.17;57.17;96286.44;5115259;28;20100;-63
2022/07/11 03:05:49;;;;;;;2.55;1.70;;;;;;;15.96;59.44;96286.00;5115382;28;20059;-63
2022/07/11 03:08:17;;;;;;;2.40;1.67;;;;;;;15.83;59.95;96283.28;5115272;28;20097;-62
2022/07/11 03:10:44;;;;;;;2.90;1.88;;;;;;;15.66;60.67;96291.31;5115444;28;20071;-63
2022/07/11 03:13:12;;;;;;;2.15;1.60;;;;;;;15.48;61.46;96285.41;5115264;28;20058;-63
2022/07/11 03:15:39;;;;;;;3.03;1.92;;;;;;;15.41;61.74;96281.44;5115178;28;20050;-63
2022/07/11 03:18:07;;;;;;;2.67;1.77;;;;;;;15.33;62.37;96291.63;5115096;28;20097;-63
2022/07/11 03:20:34;;;;;;;3.10;1.92;;;;;;;15.27;62.54;96292.84;5115305;28;20039;-62
2022/07/11 03:23:01;;;;;;;3.55;2.00;;;;;;;15.12;63.16;96289.34;5115017;28;20100;-63
2022/07/11 03:25:30;;;;;;;4.57;1.98;;;;;;;15.11;63.49;96291.13;5114832;28;20143;-62
2022/07/11 03:27:57;;;;;;;2.35;1.80;;;;;;;15.08;63.96;96298.38;5115068;28;20043;-63
2022/07/11 03:30:24;;;;;;;4.25;1.70;;;;;;;15.02;63.93;96302.25;5114844;28;20055;-62
2022/07/11 03:32:51;;;;;;;2.72;2.00;;;;;;;15.01;63.76;96304.00;5114884;28;20462;-63
2022/07/11 03:38:03;;;;;;;2.95;2.00;;;;;;;14.85;64.13;96284.78;5114163;28;20093;-63
2022/07/11 03:40:31;;;;;;;2.35;1.80;;;;;;;15.00;64.36;96294.44;5114618;28;20116;-62
2022/07/11 03:42:58;;;;;;;2.17;1.85;;;;;;;15.22;63.96;96297.53;5114660;28;20051;-63
2022/07/11 03:45:26;;;;;;;2.28;1.80;;;;;;;15.56;62.72;96306.00;5114632;28;20175;-63
2022/07/11 03:47:53;;;;;;;1.95;1.60;;;;;;;16.02;60.11;96312.00;5114296;28;20143;-62
2022/07/11 03:50:20;;;;;;;1.92;1.40;;;;;;;16.32;58.93;96320.69;5114523;28;20083;-62
2022/07/11 03:52:47;;;;;;;1.50;1.40;;;;;;;16.54;59.25;96313.06;5114637;28;20047;-63
2022/07/11 03:55:14;;;;;;;2.53;1.70;;;;;;;16.85;56.80;96311.94;5114421;28;20126;-63
2022/07/11 03:57:43;;;;;;;1.55;1.45;;;;;;;17.25;55.79;96313.72;5114443;28;20044;-63
2022/07/11 04:00:11;;;;;;;2.30;1.38;;;;;;;17.78;53.71;96312.72;5114327;28;20093;-63
2022/07/11 04:02:38;;;;;;;1.38;1.23;;;;;;;18.27;52.84;96315.47;5114318;28;20139;-63
2022/07/11 04:05:06;;;;;;;2.30;1.25;;;;;;;18.77;50.21;96317.97;5114205;28;20047;-63
2022/07/11 04:07:33;;;;;;;1.80;1.20;;;;;;;19.24;49.10;96311.88;5114391;28;20134;-64
2022/07/11 04:10:01;;;;;;;1.25;1.15;;;;;;;19.72;48.39;96317.06;5114346;28;20165;-63
2022/07/11 04:12:28;;;;;;;4.70;1.17;;;;;;;20.13;46.05;96312.09;5114129;28;20047;-64
2022/07/11 04:14:56;;;;;;;2.25;1.10;;;;;;;20.56;45.87;96321.06;5113901;28;20051;-63
2022/07/11 04:17:24;;;;;;;1.33;1.02;;;;;;;21.00;44.75;96320.13;5114285;28;20164;-64
2022/07/11 04:19:51;;;;;;;2.83;1.23;;;;;;;21.42;43.69;96320.13;5114176;28;20138;-64
2022/07/11 04:22:19;;;;;;;3.17;1.20;;;;;;;21.66;42.41;96324.31;5114423;28;20043;-64
2022/07/11 04:24:46;;;;;;;1.30;1.15;;;;;;;21.79;42.20;96336.59;5113752;28;20489;-64
2022/07/11 04:27:13;;;;;;;1.65;1.00;;;;;;;22.01;42.41;96337.38;5113934;28;20395;-64
2022/07/11 04:29:40;;;;;;;2.60;1.52;;;;;;;22.13;41.13;96335.44;5113791;28;20062;-64
2022/07/11 04:32:10;;;;;;;1.40;1.02;;;;;;;22.36;41.36;96329.88;5113811;28;20051;-64
2022/07/11 04:34:37;;;;;;;1.23;1.13;;;;;;;22.76;40.30;96330.78;5113816;28;20431;-64
2022/07/11 04:37:04;;;;;;;1.40;0.80;;;;;;;23.14;39.02;96336.25;5113867;28;20504;-64
2022/07/11 04:39:32;;;;;;;1.90;1.10;;;;;;;23.39;38.61;96332.13;5113891;28;20051;-64
2022/07/11 04:42:00;;;;;;;1.98;0.80;;;;;;;23.62;37.71;96330.97;5113612;28;20073;-64
2022/07/11 04:44:28;;;;;;;3.78;1.50;;;;;;;23.69;37.65;96338.22;5113570;28;20087;-64
2022/07/11 04:46:55;;;;;;;3.97;1.20;;;;;;;23.91;37.83;96328.19;5113461;28;20052;-64
2022/07/11 04:49:24;;;;;;;0.80;0.80;;;;;;;24.14;37.74;96332.31;5113503;28;20581;-64
2022/07/11 04:51:51;;;;;;;1.13;0.90;;;;;;;24.44;36.51;96328.47;5113661;28;20040;-64
2022/07/11 04:54:18;;;;;;;2.97;1.10;;;;;;;24.85;35.34;96327.19;5113543;28;20070;-64
2022/07/11 04:56:46;;;;;;;1.73;0.80;;;;;;;24.78;34.86;96331.47;5113750;28;20195;-64
2022/07/11 04:59:13;;;;;;;2.08;0.98;;;;;;;24.79;35.12;96325.13;5113568;28;20113;-64
2022/07/11 05:01:40;;;;;;;1.63;0.90;;;;;;;25.04;35.05;96328.06;5113519;28;20054;-64
2022/07/11 05:04:08;;;;;;;1.05;0.85;;;;;;;24.99;34.14;96333.88;5113340;28;20489;-64
2022/07/11 05:06:36;;;;;;;3.85;0.88;;;;;;;25.20;33.96;96335.38;5113553;28;20093;-64
2022/07/11 05:09:07;;;;;;;1.38;1.02;;;;;;;25.42;33.77;96342.03;5113372;28;20412;-64
2022/07/11 05:11:34;;;;;;;1.63;0.93;;;;;;;25.56;33.52;96346.00;5113517;28;20054;-63
2022/07/11 05:14:01;;;;;;;1.38;0.88;;;;;;;25.49;33.93;96345.75;5113536;28;20047;-64
2022/07/11 05:16:30;;;;;;;2.55;0.95;;;;;;;25.40;33.75;96332.50;5113491;28;20120;-63
2022/07/11 05:18:57;;;;;;;0.90;0.90;;;;;;;25.59;34.00;96334.97;5113440;28;20040;-64
2022/07/11 05:21:25;;;;;;;0.88;0.80;;;;;;;25.60;33.18;96330.47;5113427;28;20413;-64
2022/07/11 05:23:53;;;;;;;1.20;0.90;;;;;;;25.67;32.75;96336.03;5113216;28;20082;-64
2022/07/11 05:26:21;;;;;;;2.50;0.80;;;;;;;25.49;32.64;96336.88;5113178;28;20048;-64
2022/07/11 05:28:48;;;;;;;3.65;1.00;;;;;;;25.68;32.25;96335.88;5113173;28;20058;-64
2022/07/11 05:31:15;;;;;;;4.65;1.00;;;;;;;26.12;33.11;96348.28;5113126;28;20489;-64
2022/07/11 05:33:43;;;;;;;6.57;1.20;;;;;;;26.48;31.97;96349.09;5113093;28;20051;-64
2022/07/11 05:36:11;;;;;;;2.80;1.08;;;;;;;26.68;31.65;96349.66;5113247;28;20481;-64
2022/07/11 05:38:39;;;;;;;1.38;0.80;;;;;;;26.49;32.10;96356.97;5113151;28;20046;-64
2022/07/11 05:41:07;;;;;;;3.70;1.00;;;;;;;26.65;30.86;96352.66;5113027;28;20401;-64
2022/07/11 05:43:35;;;;;;;1.95;0.90;;;;;;;26.65;31.68;96352.66;5113368;28;20044;-64
2022/07/11 05:46:06;;;;;;;3.30;1.02;;;;;;;26.64;31.22;96356.38;5112809;28;20051;-64
2022/07/11 05:48:33;;;;;;;4.00;1.00;;;;;;;26.81;31.61;96353.69;5112914;28;20048;-64
2022/07/11 05:51:00;;;;;;;2.22;0.85;;;;;;;27.00;31.44;96361.44;5113085;28;20052;-64
2022/07/11 05:53:28;;;;;;;1.52;0.80;;;;;;;27.43;30.41;96365.81;5113062;28;20556;-64
2022/07/11 05:55:55;;;;;;;1.08;0.90;;;;;;;27.36;31.54;96373.69;5113018;28;20131;-64
2022/07/11 05:58:24;;;;;;;1.63;0.73;;;;;;;27.68;30.24;96362.25;5112907;28;20048;-64
2022/07/11 06:00:52;;;;;;;1.02;0.80;;;;;;;27.78;28.43;96372.84;5115282;28;20140;-64
2022/07/11 06:03:19;;;;;;;6.35;0.90;;;;;;;27.97;28.74;96372.47;5116593;28;20084;-64
2022/07/11 06:05:48;;;;;;;1.08;1.00;;;;;;;28.14;29.01;96377.75;5116394;28;20083;-64
2022/07/11 06:10:59;;;;;;;0.93;0.80;;;;;;;28.41;28.15;96389.09;5116718;28;20517;-64
2022/07/11 06:13:30;;;;;;;1.52;0.90;;;;;;;28.28;28.33;96384.25;5116423;28;20047;-64
2022/07/11 06:16:00;;;;;;;1.83;1.02;;;;;;;28.43;28.54;96379.00;5116360;28;20044;-64
2022/07/11 06:18:27;;;;;;;1.50;0.80;;;;;;;28.53;28.66;96389.53;5116333;28;20097;-64
2022/07/11 06:20:54;;;;;;;2.72;1.00;;;;;;;28.36;28.19;96389.63;5116322;27;20279;-64
2022/07/11 06:23:22;;;;;;;2.97;1.00;;;;;;;28.48;28.65;96394.63;5116228;28;20105;-64
2022/07/11 06:25:49;;;;;;;4.75;0.90;;;;;;;28.74;28.02;96390.78;5116241;27;20135;-64
2022/07/11 06:28:16;;;;;;;1.08;0.98;;;;;;;28.78;28.17;96391.25;5116144;28;20480;-64
2022/07/11 06:30:44;;;;;;;2.67;1.05;;;;;;;28.55;26.26;96389.38;5116347;28;20075;-64
2022/07/11 06:33:12;;;;;;;1.50;0.70;;;;;;;28.62;26.20;96401.94;5116029;28;20051;-64
2022/07/11 06:35:39;;;;;;;3.38;0.88;;;;;;;28.51;26.74;96387.03;5116062;28;20134;-64
2022/07/11 06:38:07;;;;;;;5.07;1.15;;;;;;;28.18;27.24;96381.78;5116042;28;20070;-63
2022/07/11 06:40:34;;;;;;;5.97;1.20;;;;;;;28.30;28.61;96392.19;5116052;28;20096;-63
2022/07/11 06:43:01;;;;;;;2.83;1.00;;;;;;;28.54;27.50;96387.69;5115810;28;20108;-64
2022/07/11 06:45:29;;;;;;;0.93;0.73;;;;;;;28.72;27.33;96399.00;5115747;28;20128;-63
2022/07/11 06:47:57;;;;;;;9.60;1.27;;;;;;;28.82;27.62;96406.88;5115726;28;20044;-63
2022/07/11 06:50:24;;;;;;;10.02;1.23;;;;;;;29.01;27.61;96413.69;5115644;28;20044;-63
2022/07/11 06:52:51;;;;;;;3.88;1.10;;;;;;;28.94;27.21;96404.66;5115630;28;20047;-64
2022/07/11 06:55:19;;;;;;;6.18;1.20;;;;;;;29.03;26.65;96409.97;5115606;28;20054;-64
2022/07/11 06:57:46;;;;;;;2.85;0.80;;;;;;;29.13;26.86;96403.34;5115509;28;20493;-63
2022/07/11 07:00:13;;;;;;;1.95;0.70;;;;;;;28.39;27.58;96409.97;5115544;28;20040;-63
2022/07/11 07:02:41;;;;;;;0.73;0.70;;;;;;;28.63;27.54;96413.56;5115418;28;20059;-63
2022/07/11 07:05:10;;;;;;;3.95;0.98;;;;;;;28.94;26.51;96412.72;5115569;28;20097;-63
2022/07/11 07:07:37;;;;;;;1.20;0.80;;;;;;;28.95;26.71;96409.00;5115366;28;20047;-64
2022/07/11 07:10:07;;;;;;;5.03;0.85;;;;;;;28.83;26.09;96405.03;5115552;28;20043;-63
2022/07/11 07:12:39;;;;;;;4.43;1.25;;;;;;;28.81;26.38;96412.44;5115137;28;20101;-63
2022/07/11 07:15:07;;;;;;;8.15;1.00;;;;;;;28.61;27.38;96408.34;5115135;28;20055;-63
2022/07/11 07:17:34;;;;;;;2.13;0.80;;;;;;;28.42;26.77;96406.94;5115129;27;20112;-64
2022/07/11 07:20:02;;;;;;;1.58;0.85;;;;;;;28.53;26.85;96404.88;5115116;28;20052;-63
2022/07/11 07:22:30;;;;;;;3.10;0.82;;;;;;;28.43;27.15;96411.28;5115144;28;20047;-63
2022/07/11 07:24:58;;;;;;;0.75;0.70;;;;;;;28.56;25.37;96418.78;5114941;28;20504;-63
2022/07/11 07:27:25;;;;;;;3.72;0.98;;;;;;;28.74;25.68;96415.84;5115310;28;20450;-63
2022/07/11 07:29:52;;;;;;;3.85;1.00;;;;;;;28.59;25.87;96420.31;5114872;28;20140;-63
2022/07/11 07:32:19;;;;;;;3.95;0.70;;;;;;;28.33;25.51;96416.88;5114993;28;20134;-63
2022/07/11 07:34:46;;;;;;;1.10;0.70;;;;;;;28.54;25.16;96411.91;5114798;28;20051;-63
2022/07/11 07:37:14;;;;;;;2.45;0.60;;;;;;;28.44;25.23;96409.44;5114679;28;20443;-63
2022/07/11 07:39:43;;;;;;;0.60;0.60;;;;;;;28.43;25.48;96426.56;5114935;28;20054;-63
2022/07/11 07:42:10;;;;;;;5.25;0.85;;;;;;;28.53;25.75;96418.31;5114911;28;20092;-63
2022/07/11 07:44:37;;;;;;;5.55;0.90;;;;;;;28.87;26.14;96417.94;5114588;28;20050;-63
2022/07/11 07:47:04;;;;;;;1.63;0.80;;;;;;;28.95;25.66;96416.25;5114452;28;20047;-64
2022/07/11 07:49:32;;;;;;;2.22;0.80;;;;;;;28.92;26.24;96428.16;5114632;28;20105;-63
2022/07/11 07:51:59;;;;;;;2.10;0.82;;;;;;;29.03;26.33;96423.41;5114534;28;20048;-63
2022/07/11 07:54:26;;;;;;;5.80;1.02;;;;;;;29.41;25.06;96419.97;5114485;28;20047;-63
2022/07/11 07:56:55;;;;;;;4.32;1.13;;;;;;;29.10;25.94;96427.06;5114279;27;20054;-63
2022/07/11 07:59:24;;;;;;;4.28;0.80;;;;;;;29.13;25.44;96427.56;5114281;28;20057;-63
2022/07/11 08:01:51;;;;;;;6.78;1.00;;;;;;;29.09;27.04;96426.25;5114302;28;20108;-62
2022/07/11 08:04:18;;;;;;;4.00;0.90;;;;;;;29.00;26.33;96424.63;5114238;28;20100;-63
2022/07/11 08:06:45;;;;;;;1.40;0.77;;;;;;;28.40;27.59;96421.53;5114206;28;20052;-63
2022/07/11 08:09:12;;;;;;;4.00;0.82;;;;;;;28.39;27.89;96418.03;5114216;28;20047;-63
2022/07/11 08:11:40;;;;;;;1.27;0.68;;;;;;;28.53;26.25;96413.75;5114167;28;20460;-62
2022/07/11 08:14:08;;;;;;;1.02;0.70;;;;;;;28.56;26.15;96416.09;5114224;28;20052;-62
2022/07/11 08:16:36;;;;;;;0.73;0.60;;;;;;;28.57;26.81;96427.69;5114088;28;20079;-63
2022/07/11 08:19:05;;;;;;;1.73;0.60;;;;;;;28.71;26.13;96413.50;5114020;28;20071;-63
2022/07/11 08:21:33;;;;;;;1.25;0.70;;;;;;;29.12;25.85;96414.28;5114266;28;20105;-63
2022/07/11 08:24:02;;;;;;;3.72;0.90;;;;;;;28.93;25.00;96412.88;5113445;28;20389;-62
2022/07/11 08:26:29;;;;;;;1.38;0.90;;;;;;;28.91;26.62;96414.88;5113793;28;20052;-62
2022/07/11 08:28:57;;;;;;;1.48;0.77;;;;;;;29.37;25.13;96414.94;5114030;28;20043;-62
2022/07/11 08:31:26;;;;;;;3.88;1.02;;;;;;;29.55;25.33;96407.56;5113871;28;20049;-62
2022/07/11 08:33:53;;;;;;;0.73;0.70;;;;;;;29.56;24.94;96414.66;5113872;28;20126;-62
2022/07/11 08:36:21;;;;;;;2.17;0.80;;;;;;;29.17;26.32;96411.06;5113804;28;20054;-62
2022/07/11 08:38:48;;;;;;;4.78;0.80;;;;;;;28.70;26.05;96408.28;5114030;28;20374;-63
2022/07/11 08:41:18;;;;;;;1.75;0.70;;;;;;;28.37;25.76;96409.28;5113815;28;20051;-61
2022/07/11 08:43:46;;;;;;;1.20;0.80;;;;;;;28.15;25.42;96400.09;5113877;28;20080;-61
2022/07/11 08:46:14;;;;;;;3.70;0.77;;;;;;;27.96;26.97;96405.69;5113583;28;20039;-62
2022/07/11 08:48:43;;;;;;;1.50;0.82;;;;;;;28.09;26.27;96396.25;5113578;28;20131;-62
2022/07/11 08:51:11;;;;;;;1.67;0.80;;;;;;;28.42;26.94;96393.47;5113638;28;20052;-61
2022/07/11 08:53:44;;;;;;;2.75;0.70;;;;;;;28.71;26.55;96405.41;5113593;28;20093;-62
2022/07/11 08:56:15;;;;;;;5.25;0.73;;;;;;;28.98;26.56;96405.13;5113498;28;20071;-62
2022/07/11 08:58:46;;;;;;;2.72;0.88;;;;;;;29.39;25.11;96396.75;5113604;28;20489;-62
2022/07/11 09:01:16;;;;;;;1.20;0.98;;;;;;;29.76;24.84;96393.38;5113489;28;20047;-62
2022/07/11 09:03:46;;;;;;;0.90;0.90;;;;;;;30.10;24.51;96397.41;5113504;28;20099;-62
2022/07/11 09:06:13;;;;;;;1.95;0.93;;;;;;;30.44;23.93;96389.81;5113441;28;20100;-62
2022/07/11 09:08:41;;;;;;;0.90;0.88;;;;;;;30.37;23.38;96387.00;5113440;28;20100;-62
2022/07/11 09:11:08;;;;;;;1.17;0.70;;;;;;;30.22;24.11;96391.59;5113451;28;20047;-62
2022/07/11 09:13:36;;;;;;;6.03;0.80;;;;;;;30.28;24.18;96396.25;5113315;28;20382;-62
2022/07/11 09:16:05;;;;;;;9.15;1.00;;;;;;;30.42;24.05;96399.09;5113430;28;20043;-62
2022/07/11 09:18:34;;;;;;;3.70;1.05;;;;;;;30.66;23.86;96403.34;5113454;28;20082;-62
2022/07/11 09:26:34;;;;;;;2.17;1.00;;;;;;;29.42;25.01;96403.63;5113418;28;20573;-62
2022/07/11 09:29:03;;;;;;;1.73;1.00;;;;;;;29.35;25.63;96400.78;5113184;28;20040;-61
2022/07/11 09:31:33;;;;;;;3.50;0.80;;;;;;;29.53;25.00;96399.66;5113337;28;20130;-62
2022/07/11 09:34:06;;;;;;;5.25;0.90;;;;;;;30.02;25.97;96398.34;5113303;28;20105;-62
2022/07/11 09:36:54;;;;;;;1.67;1.20;;;;;;;30.18;24.53;96403.75;5116671;28;20056;-62
2022/07/11 09:39:23;;;;;;;2.50;0.80;;;;;;;30.09;24.12;96408.38;5117137;28;20051;-62
2022/07/11 09:41:53;;;;;;;6.80;1.20;;;;;;;29.91;24.94;96409.56;5117011;28;20047;-62
2022/07/11 09:44:22;;;;;;;;;;;;;;;29.46;25.20;96409.47;5117562;28;20059;-62
2022/07/11 09:46:52;;;;;;;5.28;0.95;;;;;;;29.07;25.81;96405.91;5116661;28;19920;-62
2022/07/11 09:49:32;;;;;;;4.68;1.02;;;;;;;28.62;25.83;96406.47;5116851;28;20051;-61
2022/07/11 09:52:11;;;;;;;1.05;0.82;;;;;;;27.86;26.89;96399.66;5116715;28;20040;-62
2022/07/11 09:55:01;;;;;;;3.80;0.80;;;;;;;27.29;28.11;96414.78;5116800;28;20048;-61
2022/07/11 09:57:34;;;;;;;2.45;0.80;;;;;;;27.15;28.22;96409.09;5112931;28;20043;-61
2022/07/11 10:00:05;;;;;;;1.50;0.80;;;;;;;27.12;29.27;96409.44;5116761;28;20481;-62
2022/07/11 10:02:34;;;;;;;3.35;0.90;;;;;;;27.28;28.52;96410.44;5116621;28;20104;-61
2022/07/11 10:05:04;;;;;;;1.85;1.00;;;;;;;27.49;28.14;96418.00;5116567;28;20050;-61
2022/07/11 10:07:34;;;;;;;0.75;0.75;;;;;;;27.71;27.86;96413.81;5116434;28;20050;-62
2022/07/11 10:10:05;;;;;;;6.13;1.10;;;;;;;27.93;27.97;96411.41;5116446;28;20109;-61
2022/07/11 10:12:34;;;;;;;7.15;1.13;;;;;;;28.23;27.66;96411.66;5116324;28;20075;-61
2022/07/11 10:15:06;;;;;;;2.30;1.00;;;;;;;28.37;26.59;96417.34;5116279;28;20047;-61
2022/07/11 10:17:44;;;;;;;3.03;0.90;;;;;;;28.84;27.65;96412.09;5116297;28;20504;-62
2022/07/11 10:20:21;;;;;;;6.18;0.95;;;;;;;29.10;25.34;96414.47;5116359;27;20039;-61
2022/07/11 10:22:59;;;;;;;0.95;0.85;;;;;;;28.77;25.63;96401.19;5116468;28;20108;-61
2022/07/11 10:25:35;;;;;;;0.90;0.73;;;;;;;29.06;26.20;96405.06;5116194;28;20047;-62
2022/07/11 10:28:15;;;;;;;2.67;0.80;;;;;;;29.41;25.07;96401.09;5116038;27;20086;-61
2022/07/11 10:30:47;;;;;;;1.80;0.93;;;;;;;29.49;25.78;96393.78;5115898;28;20047;-61
2022/07/11 10:33:16;;;;;;;4.93;1.05;;;;;;;29.50;25.54;96398.16;5116013;28;20047;-61
2022/07/11 10:35:45;;;;;;;1.40;0.85;;;;;;;29.41;24.95;96398.41;5116005;28;20052;-62
2022/07/11 10:38:14;;;;;;;4.63;0.77;;;;;;;29.37;25.64;96401.47;5115869;28;20040;-61
2022/07/11 10:40:47;;;;;;;1.20;0.75;;;;;;;29.31;25.35;96399.50;5115967;28;20048;-62
2022/07/11 10:43:16;;;;;;;3.25;0.90;;;;;;;29.24;25.76;96398.53;5115985;28;20043;-61
2022/07/11 10:45:58;;;;;;;6.27;0.83;;;;;;;29.21;25.08;96397.06;5115317;28;20097;-61
2022/07/11 10:48:27;;;;;;;4.32;0.75;;;;;;;29.26;25.52;96393.81;5115977;28;20114;-61
2022/07/11 10:51:04;;;;;;;1.73;0.85;;;;;;;29.17;24.92;96394.91;5115742;28;20046;-61
2022/07/11 10:53:46;;;;;;;1.15;0.90;;;;;;;29.03;26.41;96400.03;5115628;28;20051;-61
2022/07/11 10:56:32;;;;;;;0.73;0.55;;;;;;;28.40;24.61;96392.81;5115504;27;20055;-61
2022/07/11 10:59:13;;;;;;;4.70;0.75;;;;;;;27.69;25.50;96391.66;5115623;28;20044;-61
2022/07/11 11:02:05;;;;;;;2.70;1.00;;;;;;;27.23;26.17;96401.06;5115662;28;20485;-61
2022/07/11 11:04:57;;;;;;;1.73;0.90;;;;;;;27.62;28.43;96387.94;5115558;28;20131;-61
2022/07/11 11:07:41;;;;;;;3.33;0.80;;;;;;;28.23;27.68;96390.16;5115380;28;20055;-61
2022/07/11 11:10:46;;;;;;;2.67;0.68;;;;;;;28.37;26.01;96393.16;5115226;28;20079;-61
2022/07/11 11:13:19;;;;;;;2.88;0.70;;;;;;;28.38;25.42;96386.75;5115347;28;20481;-61
2022/07/11 11:15:49;;;;;;;1.58;0.80;;;;;;;28.24;25.61;96389.13;5115252;28;20055;-61
2022/07/11 11:18:36;;;;;;;1.40;0.55;;;;;;;28.19;25.93;96393.34;5115133;28;20040;-62
2022/07/11 11:21:20;;;;;;;1.20;0.82;;;;;;;27.98;26.17;96394.78;5115103;27;20482;-61
2022/07/11 11:24:08;;;;;;;0.65;0.65;;;;;;;27.85;26.67;96400.69;5114929;28;20052;-61
2022/07/11 11:27:01;;;;;;;1.00;0.75;;;;;;;27.86;26.92;96397.00;5114961;28;20565;-61
2022/07/11 11:29:30;;;;;;;2.17;0.88;;;;;;;27.96;27.88;96403.00;5111807;28;20425;-61
2022/07/11 11:31:59;;;;;;;1.60;0.80;;;;;;;28.03;27.03;96407.69;5114899;28;20064;-61
2022/07/11 11:34:28;;;;;;;1.10;0.60;;;;;;;28.10;26.34;96401.47;5114824;28;20039;-62
2022/07/11 11:37:00;;;;;;;3.65;0.80;;;;;;;28.15;26.04;96398.25;5114694;28;20054;-61
2022/07/11 11:39:30;;;;;;;3.13;0.77;;;;;;;28.20;26.89;96395.88;5114917;28;20071;-61
2022/07/11 11:42:29;;;;;;;5.40;0.90;;;;;;;28.18;27.78;96392.53;5114637;28;20121;-61
2022/07/11 11:44:59;;;;;;;3.13;0.70;;;;;;;28.08;27.86;96398.09;5072023;28;20064;-61
2022/07/11 11:47:29;;;;;;;3.60;1.52;;;;;;;28.27;28.50;96387.97;5071647;28;20053;-61
2022/07/11 11:49:56;;;;;;;7.03;1.05;;;;;;;28.49;27.16;96393.59;5071941;28;20080;-62
2022/07/11 11:52:24;;;;;;;3.42;0.75;;;;;;;28.67;26.83;96387.97;5071722;28;20056;-62
2022/07/11 11:54:53;;;;;;;2.60;0.93;;;;;;;28.88;26.93;96386.50;5071817;28;20059;-61